Time;durP1;ratioP1;P1;durP2;ratioP2;P2;SDS_P1;SDS_P2;PMS_P1;PMS_P2;Temp;Humidity;BMP_temperature;BMP_pressure;BME280_temperature;BME280_humidity;BME280_pressure;Samples;Min_cycle;Max_cycle;Signal;HPM_P1;HPM_P2
2024/01/19 00:00:24;;;;;;;6.03;1.20;;;0.90;87.90;;;;;;5010874;28;20068;-85
2024/01/19 00:02:49;;;;;;;4.97;1.63;;;0.90;87.90;;;;;;5026183;28;20045;-85
2024/01/19 00:05:18;;;;;;;5.23;0.97;;;0.90;87.90;;;;;;5013371;28;20041;-84
2024/01/19 00:07:43;;;;;;;3.73;0.80;;;0.90;87.90;;;;;;5010966;28;20033;-84
2024/01/19 00:10:09;;;;;;;4.97;1.20;;;0.90;87.90;;;;;;5026930;28;20523;-84
2024/01/19 00:12:35;;;;;;;2.97;0.70;;;0.90;87.90;;;;;;5014608;28;20037;-84
2024/01/19 00:15:05;;;;;;;3.23;0.73;;;0.90;87.90;;;;;;5007809;28;20058;-84
2024/01/19 00:17:31;;;;;;;3.40;0.87;;;0.90;87.90;;;;;;5020319;28;20052;-84
2024/01/19 00:19:56;;;;;;;4.63;1.10;;;0.90;87.90;;;;;;5010500;28;20556;-84
2024/01/19 00:22:22;;;;;;;4.73;1.07;;;0.90;87.90;;;;;;5006257;28;20124;-85
2024/01/19 00:24:47;;;;;;;8.17;1.50;;;0.80;87.70;;;;;;5005920;28;20111;-85
2024/01/19 00:27:13;;;;;;;5.43;1.10;;;0.90;87.70;;;;;;5023801;28;20038;-85
2024/01/19 00:29:39;;;;;;;5.67;1.20;;;0.90;87.70;;;;;;5010537;28;20034;-85
2024/01/19 00:32:05;;;;;;;2.67;0.80;;;0.90;87.70;;;;;;5023034;28;20049;-85
2024/01/19 00:34:31;;;;;;;4.53;1.00;;;0.90;87.80;;;;;;5026189;28;20164;-85
2024/01/19 00:36:57;;;;;;;1.97;0.73;;;0.90;87.80;;;;;;5010054;28;20076;-85
2024/01/19 00:39:22;;;;;;;4.87;0.70;;;0.80;87.80;;;;;;5026729;28;20048;-85
2024/01/19 00:41:48;;;;;;;1.77;0.70;;;0.90;87.80;;;;;;5019912;28;20558;-84
2024/01/19 00:44:14;;;;;;;4.60;0.90;;;0.90;87.80;;;;;;5008021;28;20080;-84
2024/01/19 00:46:40;;;;;;;3.67;1.10;;;0.80;87.80;;;;;;5007283;28;20053;-84
2024/01/19 00:49:05;;;;;;;2.00;0.70;;;0.80;87.80;;;;;;5008450;28;20045;-84
2024/01/19 00:51:31;;;;;;;3.97;1.00;;;0.80;87.80;;;;;;5010804;28;20457;-84
2024/01/19 00:53:57;;;;;;;3.57;1.20;;;0.90;87.90;;;;;;5009850;28;20034;-84
2024/01/19 00:56:22;;;;;;;2.77;0.93;;;0.80;87.80;;;;;;5004449;28;20040;-84
2024/01/19 00:58:48;;;;;;;3.67;0.70;;;0.80;87.80;;;;;;5026585;28;20471;-84
2024/01/19 01:01:14;;;;;;;2.80;0.80;;;0.80;87.70;;;;;;5005849;28;20038;-84
2024/01/19 01:03:39;;;;;;;3.40;0.93;;;0.80;87.70;;;;;;5009081;28;20041;-84
2024/01/19 01:06:05;;;;;;;3.40;1.00;;;0.80;87.70;;;;;;5008901;28;20035;-84
2024/01/19 01:08:34;;;;;;;3.50;0.90;;;0.80;87.70;;;;;;5024501;28;20037;-84
2024/01/19 01:11:00;;;;;;;4.43;0.90;;;0.80;87.70;;;;;;5022283;28;20396;-84
2024/01/19 01:13:26;;;;;;;2.40;1.00;;;1.10;87.90;;;;;;5021154;28;20044;-84
2024/01/19 01:15:51;;;;;;;4.47;1.43;;;0.80;87.70;;;;;;5021656;28;20065;-85
2024/01/19 01:18:19;;;;;;;3.70;0.90;;;0.80;87.60;;;;;;5002885;28;20080;-85
2024/01/19 01:20:45;;;;;;;3.30;0.80;;;0.80;87.60;;;;;;5021615;28;20045;-85
2024/01/19 01:23:10;;;;;;;6.20;1.00;;;0.80;87.60;;;;;;5025746;28;20037;-85
2024/01/19 01:25:37;;;;;;;6.40;1.40;;;0.80;87.50;;;;;;5006213;28;20116;-84
2024/01/19 01:28:02;;;;;;;4.07;0.87;;;0.70;87.40;;;;;;5027184;28;20059;-85
2024/01/19 01:30:28;;;;;;;3.57;0.90;;;0.70;87.50;;;;;;5004509;28;20112;-86
2024/01/19 01:32:54;;;;;;;4.00;0.90;;;0.70;87.50;;;;;;5006035;28;20048;-85
2024/01/19 01:35:19;;;;;;;6.73;1.27;;;0.70;87.60;;;;;;5001873;28;20030;-85
2024/01/19 01:37:45;;;;;;;3.30;1.10;;;0.70;87.70;;;;;;5009576;28;20038;-85
2024/01/19 01:40:11;;;;;;;5.03;1.50;;;0.70;87.70;;;;;;5027238;28;20112;-85
2024/01/19 01:42:38;;;;;;;3.33;1.10;;;0.70;87.80;;;;;;5021419;28;20037;-85
2024/01/19 01:45:04;;;;;;;4.40;0.90;;;0.70;87.80;;;;;;5001394;28;20034;-85
2024/01/19 01:47:30;;;;;;;5.53;0.80;;;0.70;87.90;;;;;;5007425;28;20080;-85
2024/01/19 01:49:56;;;;;;;1.33;0.60;;;0.70;88.00;;;;;;5027512;28;20045;-85
2024/01/19 01:52:23;;;;;;;6.13;2.90;;;0.70;88.00;;;;;;5008402;28;20041;-85
2024/01/19 01:54:52;;;;;;;2.27;0.90;;;0.70;88.10;;;;;;5000400;28;20116;-85
2024/01/19 01:57:20;;;;;;;4.10;1.00;;;0.70;88.10;;;;;;5008891;28;20158;-85
2024/01/19 01:59:47;;;;;;;2.67;0.87;;;0.70;88.10;;;;;;5008039;28;20030;-84
2024/01/19 02:02:12;;;;;;;2.20;0.80;;;0.70;88.10;;;;;;5013539;28;20038;-84
2024/01/19 02:04:39;;;;;;;6.17;1.27;;;0.60;88.00;;;;;;4999171;28;20104;-84
2024/01/19 02:07:05;;;;;;;4.37;0.97;;;0.70;88.10;;;;;;5006138;28;20037;-85
2024/01/19 02:09:30;;;;;;;2.47;1.00;;;0.70;88.00;;;;;;5006512;28;20460;-85
2024/01/19 02:11:57;;;;;;;5.47;2.33;;;0.70;88.00;;;;;;5005728;28;20448;-85
2024/01/19 02:14:23;;;;;;;6.13;1.20;;;0.70;88.00;;;;;;5002013;28;20388;-84
2024/01/19 02:16:48;;;;;;;3.80;1.20;;;0.80;88.10;;;;;;5004426;28;20036;-84
2024/01/19 02:19:14;;;;;;;2.97;0.70;;;0.60;87.90;;;;;;5023998;28;20037;-84
2024/01/19 02:21:40;;;;;;;6.80;1.03;;;0.70;88.00;;;;;;5013037;28;20042;-84
2024/01/19 02:24:12;;;;;;;4.37;0.83;;;0.60;88.10;;;;;;5019720;28;20053;-86
2024/01/19 02:26:38;;;;;;;2.77;0.70;;;0.70;88.30;;;;;;5022878;28;20493;-85
2024/01/19 02:29:04;;;;;;;5.03;1.00;;;0.70;88.30;;;;;;5025520;28;20046;-85
2024/01/19 02:31:30;;;;;;;5.27;0.80;;;0.70;88.40;;;;;;5006028;28;20098;-86
2024/01/19 02:33:56;;;;;;;2.40;0.70;;;0.70;88.40;;;;;;5007283;28;20036;-86
2024/01/19 02:36:22;;;;;;;3.00;0.60;;;0.70;88.50;;;;;;5005270;28;20037;-85
2024/01/19 02:38:48;;;;;;;2.57;0.50;;;0.70;88.60;;;;;;5008642;28;20470;-86
2024/01/19 02:41:14;;;;;;;4.40;0.60;;;0.70;88.60;;;;;;5031880;28;20047;-86
2024/01/19 02:43:39;;;;;;;1.83;0.60;;;0.80;88.80;;;;;;5009921;28;20045;-85
2024/01/19 02:46:05;;;;;;;4.10;0.93;;;0.80;88.80;;;;;;5024906;28;20041;-86
2024/01/19 02:48:32;;;;;;;1.57;0.43;;;0.80;88.80;;;;;;5022819;28;20088;-85
2024/01/19 02:50:57;;;;;;;3.37;1.30;;;0.80;88.90;;;;;;5007449;28;20041;-85
2024/01/19 02:53:23;;;;;;;2.13;0.70;;;0.80;88.90;;;;;;5022744;28;20038;-85
2024/01/19 02:55:48;;;;;;;2.30;0.60;;;0.90;89.40;;;;;;5006555;28;20038;-85
2024/01/19 02:58:14;;;;;;;4.90;0.60;;;0.90;89.10;;;;;;5009298;28;20056;-85
2024/01/19 03:00:40;;;;;;;2.33;0.50;;;0.90;89.10;;;;;;5008439;28;20046;-85
2024/01/19 03:03:05;;;;;;;5.53;0.63;;;0.90;89.10;;;;;;5018442;28;20042;-85
2024/01/19 03:05:32;;;;;;;2.57;0.60;;;0.90;89.10;;;;;;5021200;28;20083;-85
2024/01/19 03:07:58;;;;;;;4.80;0.97;;;0.90;89.10;;;;;;5010811;28;20042;-85
2024/01/19 03:10:23;;;;;;;4.10;0.53;;;0.90;89.10;;;;;;5016445;28;20044;-85
2024/01/19 03:12:49;;;;;;;3.00;0.60;;;0.90;89.10;;;;;;5009025;28;20513;-85
2024/01/19 03:15:15;;;;;;;6.27;0.73;;;0.90;89.10;;;;;;5011207;28;20063;-85
2024/01/19 03:17:40;;;;;;;6.73;0.77;;;1.00;89.20;;;;;;5009074;28;20547;-84
2024/01/19 03:20:07;;;;;;;3.43;0.40;;;0.90;89.10;;;;;;5011916;28;20481;-85
2024/01/19 03:22:32;;;;;;;2.47;0.60;;;0.90;89.10;;;;;;5027321;28;20052;-85
2024/01/19 03:24:58;;;;;;;1.40;0.50;;;1.00;89.10;;;;;;5023084;28;20040;-85
2024/01/19 03:27:23;;;;;;;3.80;1.03;;;1.00;89.10;;;;;;5008399;28;20043;-85
2024/01/19 03:29:49;;;;;;;1.90;0.30;;;1.00;89.00;;;;;;5025648;28;20116;-85
2024/01/19 03:32:15;;;;;;;2.87;0.60;;;1.00;89.00;;;;;;5016787;28;20034;-84
2024/01/19 03:34:40;;;;;;;3.57;0.57;;;1.00;88.90;;;;;;5011535;28;20044;-84
2024/01/19 03:37:06;;;;;;;2.67;0.50;;;1.00;88.90;;;;;;5027773;28;20400;-85
2024/01/19 03:39:35;;;;;;;2.20;0.40;;;1.00;88.90;;;;;;5010292;28;20067;-85
2024/01/19 03:42:01;;;;;;;2.37;0.60;;;1.00;89.00;;;;;;5006595;28;20089;-85
2024/01/19 03:44:26;;;;;;;1.67;0.50;;;1.00;88.90;;;;;;5018754;28;20045;-85
2024/01/19 03:46:53;;;;;;;2.10;0.60;;;0.90;88.90;;;;;;5015765;28;20041;-85
2024/01/19 03:49:19;;;;;;;3.57;0.50;;;1.00;88.90;;;;;;5024942;28;20494;-85
2024/01/19 03:52:03;;;;;;;3.43;1.23;;;1.30;89.00;;;;;;5027863;28;20492;-86
2024/01/19 03:54:29;;;;;;;4.38;0.60;;;1.00;88.80;;;;;;5005026;28;20164;-85
2024/01/19 03:56:57;;;;;;;1.80;0.57;;;1.00;88.80;;;;;;5029063;28;20098;-85
2024/01/19 03:59:22;;;;;;;2.50;0.63;;;0.90;88.70;;;;;;5015878;28;20042;-85
2024/01/19 04:01:48;;;;;;;1.83;0.60;;;0.90;88.60;;;;;;5029761;28;20037;-85
2024/01/19 04:04:14;;;;;;;1.00;0.30;;;0.90;88.60;;;;;;5014452;28;20072;-85
2024/01/19 04:06:39;;;;;;;4.03;0.53;;;1.00;88.60;;;;;;5022620;28;20026;-85
2024/01/19 04:09:06;;;;;;;2.23;0.67;;;1.00;88.60;;;;;;5023697;28;20037;-85
2024/01/19 04:11:36;;;;;;;2.87;0.87;;;1.00;88.60;;;;;;5009236;28;20033;-84
2024/01/19 04:14:02;;;;;;;2.00;0.40;;;0.90;88.50;;;;;;5006223;28;20039;-85
2024/01/19 04:16:28;;;;;;;2.97;0.70;;;0.90;88.40;;;;;;5025676;28;20041;-85
2024/01/19 04:18:54;;;;;;;3.23;1.03;;;0.90;88.40;;;;;;5006725;28;20524;-85
2024/01/19 04:21:19;;;;;;;4.73;0.93;;;0.90;88.40;;;;;;4997060;28;20151;-85
2024/01/19 04:23:45;;;;;;;6.93;0.77;;;0.90;88.40;;;;;;5006000;28;20117;-85
2024/01/19 04:26:11;;;;;;;4.70;0.80;;;0.90;88.30;;;;;;5028256;28;20207;-85
2024/01/19 04:28:37;;;;;;;4.93;0.97;;;0.90;88.20;;;;;;5028346;28;20449;-85
2024/01/19 04:31:03;;;;;;;2.30;0.73;;;0.90;88.10;;;;;;5013573;28;20049;-84
2024/01/19 04:33:29;;;;;;;2.23;0.63;;;0.90;88.10;;;;;;5028433;28;20033;-84
2024/01/19 04:35:54;;;;;;;2.13;0.60;;;0.90;88.10;;;;;;5006245;28;20069;-85
2024/01/19 04:38:20;;;;;;;3.13;0.80;;;0.80;88.10;;;;;;5012753;28;20092;-85
2024/01/19 04:40:45;;;;;;;2.03;0.60;;;1.60;88.60;;;;;;5007559;28;20037;-85
2024/01/19 04:43:11;;;;;;;2.10;0.50;;;0.90;88.20;;;;;;5011861;28;20045;-85
2024/01/19 04:45:38;;;;;;;3.13;0.97;;;0.80;88.20;;;;;;5009132;28;20049;-85
2024/01/19 04:48:03;;;;;;;2.07;0.53;;;0.80;88.20;;;;;;5027782;28;20042;-85
2024/01/19 04:50:29;;;;;;;3.30;1.20;;;0.80;88.20;;;;;;5011456;28;20041;-84
2024/01/19 04:52:55;;;;;;;0.93;0.50;;;0.80;88.30;;;;;;5020360;28;20489;-85
2024/01/19 04:55:21;;;;;;;4.80;0.90;;;0.80;88.30;;;;;;5007521;28;20438;-85
2024/01/19 04:57:47;;;;;;;2.97;1.00;;;1.00;88.50;;;;;;5020572;28;20060;-85
2024/01/19 05:00:14;;;;;;;3.97;0.70;;;0.80;88.80;;;;;;5025159;28;20037;-85
2024/01/19 05:02:39;;;;;;;4.53;0.80;;;0.80;88.40;;;;;;5027803;28;20487;-86
2024/01/19 05:05:05;;;;;;;3.13;0.80;;;0.80;88.40;;;;;;5011686;28;20036;-85
2024/01/19 05:07:31;;;;;;;3.47;0.77;;;0.80;88.40;;;;;;5029630;28;20116;-85
2024/01/19 05:09:57;;;;;;;3.93;0.70;;;0.80;88.40;;;;;;5010810;28;20064;-85
2024/01/19 05:12:23;;;;;;;2.50;1.00;;;0.80;88.30;;;;;;5031238;28;20034;-84
2024/01/19 05:14:49;;;;;;;4.53;0.73;;;0.80;88.20;;;;;;5009176;28;20026;-84
2024/01/19 05:17:14;;;;;;;5.40;0.90;;;0.80;88.20;;;;;;5028666;28;20088;-85
2024/01/19 05:19:40;;;;;;;3.70;0.93;;;0.80;88.20;;;;;;5029888;28;20042;-85
2024/01/19 05:22:06;;;;;;;4.73;1.00;;;1.20;88.40;;;;;;5009342;28;20099;-84
2024/01/19 05:24:32;;;;;;;5.33;0.90;;;0.70;88.10;;;;;;5010945;28;20538;-84
2024/01/19 05:26:57;;;;;;;4.87;0.83;;;0.70;88.00;;;;;;5012589;28;20041;-84
2024/01/19 05:29:23;;;;;;;5.17;0.90;;;0.70;88.00;;;;;;5010148;28;20037;-85
2024/01/19 05:31:49;;;;;;;3.47;0.73;;;0.70;88.00;;;;;;5013829;28;20360;-84
2024/01/19 05:34:15;;;;;;;3.67;0.70;;;0.70;88.00;;;;;;5016346;28;20072;-84
2024/01/19 05:36:41;;;;;;;3.30;0.57;;;0.70;88.00;;;;;;5010404;28;20159;-85
2024/01/19 05:39:09;;;;;;;4.00;0.60;;;0.70;88.00;;;;;;5030697;28;20087;-86
2024/01/19 05:41:35;;;;;;;2.40;0.73;;;0.70;88.00;;;;;;5013434;28;20034;-85
2024/01/19 05:44:01;;;;;;;3.07;0.67;;;0.60;87.90;;;;;;5008512;28;20045;-86
2024/01/19 05:46:26;;;;;;;5.73;1.33;;;0.60;87.90;;;;;;5010051;28;20037;-84
2024/01/19 05:48:52;;;;;;;3.93;0.93;;;0.60;87.90;;;;;;5011970;28;20116;-86
2024/01/19 05:51:18;;;;;;;3.50;0.63;;;0.60;88.00;;;;;;5024453;28;20049;-84
2024/01/19 05:53:44;;;;;;;4.57;0.90;;;0.60;88.00;;;;;;5016181;28;20055;-82
2024/01/19 05:56:09;;;;;;;3.70;0.60;;;0.60;88.00;;;;;;5010037;28;20029;-83
2024/01/19 05:58:35;;;;;;;5.10;0.70;;;0.60;88.00;;;;;;5029542;28;20045;-83
2024/01/19 06:01:02;;;;;;;3.30;0.60;;;0.60;88.00;;;;;;5009096;28;20046;-84
2024/01/19 06:03:29;;;;;;;5.47;0.87;;;0.50;87.90;;;;;;5011277;28;20030;-82
2024/01/19 06:05:56;;;;;;;3.30;1.10;;;0.60;88.00;;;;;;5021530;28;20033;-83
2024/01/19 06:08:22;;;;;;;7.70;1.93;;;0.30;87.90;;;;;;5009618;28;20042;-83
2024/01/19 06:10:47;;;;;;;7.00;0.90;;;0.50;88.00;;;;;;5014093;28;20048;-83
2024/01/19 06:13:13;;;;;;;6.10;2.27;;;0.50;88.00;;;;;;5013482;28;20163;-83
2024/01/19 06:15:39;;;;;;;4.97;1.10;;;0.50;88.10;;;;;;5035655;28;20048;-83
2024/01/19 06:18:05;;;;;;;2.83;0.73;;;0.50;88.10;;;;;;5032363;28;20127;-83
2024/01/19 06:20:30;;;;;;;4.37;1.67;;;0.50;88.20;;;;;;5011599;28;20033;-83
2024/01/19 06:22:56;;;;;;;4.70;1.10;;;0.50;88.30;;;;;;5011994;28;20390;-84
2024/01/19 06:25:21;;;;;;;6.73;1.53;;;0.50;88.40;;;;;;5015957;28;20064;-84
2024/01/19 06:27:47;;;;;;;5.47;1.60;;;0.50;88.50;;;;;;5026550;28;20049;-85
2024/01/19 06:30:13;;;;;;;3.80;1.07;;;0.50;88.60;;;;;;5031060;28;20086;-84
2024/01/19 06:32:39;;;;;;;3.40;1.20;;;0.50;88.60;;;;;;5026747;28;20037;-84
2024/01/19 06:35:06;;;;;;;3.47;1.00;;;0.50;88.70;;;;;;5025184;28;20068;-84
2024/01/19 06:37:31;;;;;;;5.20;0.90;;;0.50;88.70;;;;;;5029896;28;20041;-84
2024/01/19 06:39:57;;;;;;;3.30;1.20;;;0.50;88.70;;;;;;5028355;28;20056;-85
2024/01/19 06:42:22;;;;;;;2.97;0.80;;;0.50;88.70;;;;;;5013454;28;20037;-84
2024/01/19 06:44:48;;;;;;;3.30;0.90;;;0.50;88.80;;;;;;5030415;28;20048;-85
2024/01/19 06:47:16;;;;;;;4.20;1.03;;;0.50;88.90;;;;;;5034291;28;20057;-84
2024/01/19 06:49:42;;;;;;;4.13;0.80;;;0.50;89.00;;;;;;5031207;28;20033;-84
2024/01/19 06:52:08;;;;;;;6.57;0.90;;;0.50;89.00;;;;;;5020259;28;20381;-85
2024/01/19 06:54:33;;;;;;;5.50;1.10;;;0.50;89.10;;;;;;5017444;28;20041;-86
2024/01/19 06:56:59;;;;;;;5.07;0.67;;;0.50;89.10;;;;;;5014835;28;20034;-85
2024/01/19 06:59:25;;;;;;;3.77;0.77;;;0.60;89.30;;;;;;5029335;28;20068;-85
2024/01/19 07:01:51;;;;;;;4.30;0.97;;;0.50;89.40;;;;;;5009121;28;20389;-85
2024/01/19 07:04:17;;;;;;;4.97;0.87;;;0.60;89.50;;;;;;5007951;28;20102;-85
2024/01/19 07:06:42;;;;;;;3.17;0.70;;;0.60;89.70;;;;;;5012094;28;20441;-85
2024/01/19 07:09:08;;;;;;;4.03;0.90;;;0.60;89.70;;;;;;5029129;28;20120;-85
2024/01/19 07:11:35;;;;;;;5.03;1.37;;;0.60;89.90;;;;;;5012601;28;20037;-85
2024/01/19 07:14:01;;;;;;;6.33;1.13;;;0.60;90.00;;;;;;5024774;28;20033;-85
2024/01/19 07:16:26;;;;;;;5.30;1.13;;;0.60;90.00;;;;;;5029555;28;20052;-85
2024/01/19 07:18:52;;;;;;;3.67;0.70;;;0.70;90.00;;;;;;5005033;28;20403;-85
2024/01/19 07:21:17;;;;;;;3.00;0.80;;;0.70;90.00;;;;;;5009072;28;20053;-85
2024/01/19 07:23:43;;;;;;;3.33;0.93;;;0.70;90.00;;;;;;5003188;28;20053;-86
2024/01/19 07:26:09;;;;;;;5.07;0.93;;;0.70;90.10;;;;;;5015203;28;20039;-86
2024/01/19 07:28:35;;;;;;;4.10;1.13;;;0.70;90.10;;;;;;5007338;28;20095;-86
2024/01/19 07:31:01;;;;;;;4.67;1.10;;;0.70;90.10;;;;;;5021590;28;20395;-85
2024/01/19 07:33:28;;;;;;;4.10;0.90;;;0.70;90.10;;;;;;4999326;28;20157;-86
2024/01/19 07:35:54;;;;;;;3.77;1.00;;;0.70;90.10;;;;;;5023152;28;20084;-85
2024/01/19 07:38:19;;;;;;;2.50;0.60;;;0.70;90.00;;;;;;5008465;28;20068;-85
2024/01/19 07:40:45;;;;;;;4.57;1.00;;;0.70;90.00;;;;;;5007057;28;20096;-85
2024/01/19 07:43:10;;;;;;;4.17;0.97;;;0.70;90.00;;;;;;5024345;28;20065;-85
2024/01/19 07:45:36;;;;;;;6.10;1.20;;;0.80;90.00;;;;;;5012689;28;20049;-86
2024/01/19 07:48:02;;;;;;;5.47;0.90;;;0.80;90.00;;;;;;5024421;28;20050;-85
2024/01/19 07:50:28;;;;;;;2.33;0.70;;;0.80;90.00;;;;;;5028327;28;20077;-85
2024/01/19 07:52:53;;;;;;;4.50;0.70;;;0.80;90.10;;;;;;5011569;28;20040;-85
2024/01/19 07:55:20;;;;;;;4.70;1.13;;;1.60;90.10;;;;;;5015888;28;20033;-86
2024/01/19 07:57:46;;;;;;;4.97;0.90;;;0.80;89.80;;;;;;5012341;28;20393;-85
2024/01/19 08:00:12;;;;;;;1.90;0.80;;;0.80;89.90;;;;;;5020357;28;20069;-85
2024/01/19 08:02:40;;;;;;;4.87;1.30;;;0.80;89.90;;;;;;5020971;28;20401;-85
2024/01/19 08:05:06;;;;;;;5.60;0.80;;;0.80;89.90;;;;;;5025520;28;20052;-86
2024/01/19 08:07:31;;;;;;;5.03;0.90;;;0.80;89.90;;;;;;5026791;28;20097;-85
2024/01/19 08:09:58;;;;;;;5.47;1.30;;;0.80;89.90;;;;;;5008957;28;20043;-85
2024/01/19 08:12:23;;;;;;;3.07;1.00;;;0.80;89.90;;;;;;5008771;28;20122;-84
2024/01/19 08:14:50;;;;;;;3.00;0.77;;;0.80;89.90;;;;;;5028602;28;20049;-84
2024/01/19 08:17:16;;;;;;;5.53;1.13;;;0.80;89.90;;;;;;5025149;28;20050;-84
2024/01/19 08:19:41;;;;;;;5.37;1.00;;;0.90;90.00;;;;;;5028670;28;20071;-84
2024/01/19 08:22:08;;;;;;;2.97;0.93;;;0.80;90.10;;;;;;5022235;28;20151;-84
2024/01/19 08:24:37;;;;;;;2.60;0.80;;;0.80;89.90;;;;;;5025708;28;20150;-84
2024/01/19 08:27:04;;;;;;;2.53;0.70;;;0.90;90.00;;;;;;5028616;28;20107;-84
2024/01/19 08:29:32;;;;;;;3.63;0.90;;;0.90;89.90;;;;;;5016047;28;20048;-84
2024/01/19 08:31:58;;;;;;;6.57;0.87;;;0.90;89.90;;;;;;5013111;28;20105;-85
2024/01/19 08:34:23;;;;;;;5.30;1.40;;;0.90;89.90;;;;;;5018590;28;20062;-84
2024/01/19 08:36:49;;;;;;;3.80;1.10;;;0.90;90.00;;;;;;5028436;28;20435;-83
2024/01/19 08:39:15;;;;;;;7.33;1.50;;;0.90;90.00;;;;;;5025636;28;20096;-84
2024/01/19 08:41:43;;;;;;;14.60;2.60;;;0.90;90.00;;;;;;5023489;28;20034;-84
2024/01/19 08:44:09;;;;;;;6.60;1.40;;;0.90;90.10;;;;;;5011303;28;20164;-83
2024/01/19 08:46:44;;;;;;;5.50;1.70;;;1.00;90.20;;;;;;5013969;28;20085;-83
2024/01/19 08:49:10;;;;;;;6.17;1.30;;;1.00;90.30;;;;;;5013157;28;20049;-83
2024/01/19 08:51:37;;;;;;;4.27;1.37;;;1.00;90.30;;;;;;5008266;28;20048;-83
2024/01/19 08:54:03;;;;;;;4.80;1.53;;;1.10;90.30;;;;;;5016418;28;20456;-83
2024/01/19 08:56:29;;;;;;;6.47;1.30;;;1.10;90.30;;;;;;5013157;28;20038;-83
2024/01/19 08:58:57;;;;;;;6.50;1.90;;;1.10;90.30;;;;;;5034168;28;20068;-83
2024/01/19 09:01:23;;;;;;;8.13;2.57;;;1.20;90.30;;;;;;5010168;28;20042;-84
2024/01/19 09:03:48;;;;;;;11.63;3.53;;;1.20;90.30;;;;;;5017008;28;20101;-82
2024/01/19 09:06:14;;;;;;;7.33;2.80;;;1.30;90.40;;;;;;5029356;28;20040;-83
2024/01/19 09:08:42;;;;;;;7.63;2.13;;;1.40;90.50;;;;;;5006107;28;20037;-84
2024/01/19 09:11:11;;;;;;;9.00;2.10;;;1.90;90.60;;;;;;5005836;28;20040;-83
2024/01/19 09:13:40;;;;;;;7.93;1.63;;;1.50;90.50;;;;;;5004108;28;20037;-85
2024/01/19 09:16:09;;;;;;;11.07;3.50;;;1.60;90.50;;;;;;5020721;28;20048;-85
2024/01/19 09:18:39;;;;;;;10.50;2.47;;;1.70;90.60;;;;;;5022774;28;20037;-84
2024/01/19 09:21:05;;;;;;;7.83;1.83;;;1.90;90.60;;;;;;5026076;28;20037;-84
2024/01/19 09:23:31;;;;;;;9.93;2.00;;;2.00;90.50;;;;;;5001661;28;20042;-84
2024/01/19 09:25:56;;;;;;;5.13;1.33;;;2.10;90.40;;;;;;5021094;28;20042;-85
2024/01/19 09:28:22;;;;;;;10.67;1.60;;;2.20;90.30;;;;;;5021190;28;20041;-85
2024/01/19 09:30:48;;;;;;;5.70;1.77;;;2.30;90.20;;;;;;5002530;28;20120;-85
2024/01/19 09:33:14;;;;;;;5.67;1.70;;;2.50;90.10;;;;;;5006572;28;20034;-85
2024/01/19 09:35:40;;;;;;;6.60;1.63;;;2.60;89.80;;;;;;5002881;28;20033;-85
2024/01/19 09:38:06;;;;;;;7.43;1.77;;;2.70;89.30;;;;;;5005331;28;20121;-85
2024/01/19 09:40:32;;;;;;;6.60;1.63;;;2.80;88.80;;;;;;5020385;28;20116;-85
2024/01/19 09:42:58;;;;;;;5.55;1.30;;;2.90;88.40;;;;;;5019973;28;20471;-85
2024/01/19 09:45:26;;;;;;;11.02;2.65;;;3.00;87.90;;;;;;5022029;28;20126;-85
2024/01/19 09:48:16;;;;;;;7.83;2.00;;;3.10;87.40;;;;;;5001140;28;20480;-85
2024/01/19 09:50:46;;;;;;;4.50;1.60;;;3.20;86.80;;;;;;5003509;28;20054;-85
2024/01/19 09:53:26;;;;;;;5.88;1.75;;;3.20;86.40;;;;;;5001311;28;20080;-85
2024/01/19 09:55:52;;;;;;;8.07;1.48;;;3.30;86.00;;;;;;5008492;28;20044;-85
2024/01/19 09:58:21;;;;;;;6.75;1.83;;;3.90;86.10;;;;;;5006547;28;20120;-85
2024/01/19 10:00:48;;;;;;;10.40;1.95;;;3.40;85.10;;;;;;4979628;28;20038;-85
2024/01/19 10:03:16;;;;;;;5.97;1.70;;;3.40;84.70;;;;;;5021797;28;20034;-85
2024/01/19 10:05:42;;;;;;;4.93;1.73;;;3.40;84.40;;;;;;5012459;28;20136;-86
2024/01/19 10:08:11;;;;;;;4.75;1.52;;;3.50;84.30;;;;;;5006390;28;20473;-85
2024/01/19 10:10:38;;;;;;;5.25;1.90;;;3.50;83.80;;;;;;5019958;28;20037;-85
2024/01/19 10:13:04;;;;;;;8.05;1.92;;;3.50;83.50;;;;;;5006564;28;20033;-85
2024/01/19 10:15:31;;;;;;;6.00;1.95;;;3.50;83.30;;;;;;5010859;28;20515;-85
2024/01/19 10:17:59;;;;;;;4.38;1.75;;;3.50;83.30;;;;;;5010653;28;20252;-85
2024/01/19 10:20:25;;;;;;;8.05;2.17;;;3.60;83.00;;;;;;5039143;28;20085;-85
2024/01/19 10:22:51;;;;;;;5.32;1.67;;;3.60;82.90;;;;;;5001112;28;20038;-85
2024/01/19 10:25:18;;;;;;;4.22;1.75;;;3.60;82.80;;;;;;5006147;28;20037;-85
2024/01/19 10:27:47;;;;;;;8.63;2.05;;;3.60;83.10;;;;;;5004078;28;20044;-85
2024/01/19 10:30:22;;;;;;;5.53;2.10;;;3.60;83.00;;;;;;5009271;28;20037;-85
2024/01/19 10:32:49;;;;;;;6.60;1.73;;;3.70;83.00;;;;;;5019385;28;20493;-86
2024/01/19 10:35:17;;;;;;;7.97;1.73;;;3.70;83.00;;;;;;5018584;28;20042;-85
2024/01/19 10:37:44;;;;;;;9.65;1.80;;;3.70;82.70;;;;;;5024975;28;20055;-85
2024/01/19 10:40:22;;;;;;;5.75;1.58;;;3.70;82.40;;;;;;5006166;28;20076;-85
2024/01/19 10:42:50;;;;;;;7.30;1.80;;;3.70;82.30;;;;;;5002035;28;20053;-85
2024/01/19 10:45:28;;;;;;;8.20;1.85;;;3.80;82.20;;;;;;5025806;28;20116;-84
2024/01/19 10:48:03;;;;;;;7.47;1.70;;;3.70;81.80;;;;;;5009833;28;20111;-84
2024/01/19 10:50:29;;;;;;;6.15;1.60;;;3.80;81.90;;;;;;5031302;28;20105;-84
2024/01/19 10:52:57;;;;;;;4.32;1.50;;;3.70;81.80;;;;;;5012823;28;20048;-84
2024/01/19 10:55:25;;;;;;;5.55;1.75;;;3.70;81.60;;;;;;5030801;28;20041;-85
2024/01/19 10:58:02;;;;;;;8.50;1.80;;;3.70;81.70;;;;;;5003174;28;20038;-85
2024/01/19 11:00:30;;;;;;;5.78;1.90;;;3.70;81.40;;;;;;5005346;28;20168;-85
2024/01/19 11:02:57;;;;;;;8.98;1.85;;;3.70;81.40;;;;;;5008202;28;20093;-84
2024/01/19 11:05:24;;;;;;;7.80;1.52;;;3.70;81.40;;;;;;5003508;28;20108;-84
2024/01/19 11:07:52;;;;;;;8.75;1.73;;;3.60;81.40;;;;;;5010435;28;20060;-84
2024/01/19 11:10:20;;;;;;;7.35;1.75;;;3.70;81.30;;;;;;5018392;28;20064;-84
2024/01/19 11:12:51;;;;;;;9.55;2.00;;;3.60;81.30;;;;;;5025056;28;20033;-84
2024/01/19 11:15:27;;;;;;;6.50;1.65;;;3.60;81.30;;;;;;5013498;28;20477;-85
2024/01/19 11:17:55;;;;;;;6.30;2.17;;;3.60;81.40;;;;;;5004944;28;20117;-85
2024/01/19 11:20:22;;;;;;;8.95;2.13;;;3.50;81.50;;;;;;5008555;28;20411;-85
2024/01/19 11:22:48;;;;;;;9.57;2.03;;;3.50;81.70;;;;;;5002246;28;20052;-85
2024/01/19 11:25:18;;;;;;;6.32;1.77;;;3.50;81.60;;;;;;5023297;28;20030;-85
2024/01/19 11:27:53;;;;;;;8.27;1.60;;;3.50;81.70;;;;;;5005733;28;20042;-84
2024/01/19 11:30:46;;;;;;;8.15;2.00;;;3.40;81.80;;;;;;5021830;28;20117;-85
2024/01/19 11:33:17;;;;;;;5.60;1.50;;;3.50;81.80;;;;;;5029015;28;20065;-85
2024/01/19 11:35:48;;;;;;;8.57;2.28;;;3.40;82.00;;;;;;5009072;28;20138;-84
2024/01/19 11:38:36;;;;;;;6.33;2.13;;;3.40;82.10;;;;;;5008512;28;20046;-85
2024/01/19 11:41:05;;;;;;;7.38;2.83;;;3.40;82.10;;;;;;5021152;28;20033;-85
2024/01/19 11:43:42;;;;;;;5.13;1.48;;;3.40;82.30;;;;;;5005725;28;20037;-84
2024/01/19 11:46:09;;;;;;;9.43;2.40;;;3.40;82.30;;;;;;5022602;28;20040;-84
2024/01/19 11:48:41;;;;;;;9.18;2.97;;;3.40;82.40;;;;;;5030460;28;20053;-84
2024/01/19 11:51:08;;;;;;;9.38;2.17;;;3.40;82.50;;;;;;5024054;28;20093;-84
2024/01/19 11:53:56;;;;;;;9.63;2.25;;;3.40;82.70;;;;;;5006064;28;20037;-84
2024/01/19 11:56:22;;;;;;;6.07;1.73;;;3.40;82.60;;;;;;5010959;28;20114;-84
2024/01/19 11:58:48;;;;;;;8.48;2.15;;;3.40;82.80;;;;;;5012448;28;20124;-84
2024/01/19 12:01:14;;;;;;;6.68;1.88;;;3.40;82.90;;;;;;5012890;28;20061;-84
2024/01/19 12:03:40;;;;;;;4.80;1.83;;;3.40;82.90;;;;;;5030713;28;20044;-84
2024/01/19 12:06:06;;;;;;;8.35;2.20;;;3.40;83.00;;;;;;5014642;28;20029;-84
2024/01/19 12:08:32;;;;;;;12.77;3.20;;;3.40;83.50;;;;;;5009133;28;20073;-85
2024/01/19 12:11:03;;;;;;;13.35;2.60;;;3.40;83.20;;;;;;5009903;28;20087;-84
2024/01/19 12:13:31;;;;;;;11.32;1.88;;;3.40;83.30;;;;;;5009211;28;20033;-84
2024/01/19 12:15:59;;;;;;;7.03;2.08;;;3.40;83.50;;;;;;5007827;28;20034;-85
2024/01/19 12:18:27;;;;;;;11.32;3.08;;;3.40;83.60;;;;;;5003989;28;20056;-85
2024/01/19 12:20:56;;;;;;;9.98;2.25;;;3.40;83.70;;;;;;4998949;28;20034;-83
2024/01/19 12:23:22;;;;;;;11.65;3.05;;;3.40;83.80;;;;;;5017099;28;20132;-83
2024/01/19 12:25:53;;;;;;;11.60;2.60;;;3.40;84.00;;;;;;5015898;28;20404;-84
2024/01/19 12:28:19;;;;;;;5.50;2.00;;;3.50;84.10;;;;;;5020168;28;20091;-85
2024/01/19 12:30:44;;;;;;;9.07;2.22;;;3.50;84.20;;;;;;5009103;28;20045;-85
2024/01/19 12:33:15;;;;;;;11.25;2.88;;;3.50;84.30;;;;;;5025780;28;20033;-84
2024/01/19 12:35:42;;;;;;;8.65;2.40;;;3.50;84.40;;;;;;5007253;28;20040;-84
2024/01/19 12:38:08;;;;;;;6.60;2.10;;;3.50;84.30;;;;;;5008586;28;20037;-84
2024/01/19 12:40:35;;;;;;;6.63;2.03;;;3.40;84.10;;;;;;5027190;28;20038;-84
2024/01/19 12:43:04;;;;;;;7.90;2.00;;;3.50;84.10;;;;;;5026202;28;20038;-84
2024/01/19 12:45:30;;;;;;;9.27;1.92;;;3.40;84.00;;;;;;5011788;28;20117;-85
2024/01/19 12:47:59;;;;;;;9.15;1.73;;;3.40;84.10;;;;;;5013985;28;20069;-84
2024/01/19 12:50:29;;;;;;;8.70;1.92;;;3.40;84.10;;;;;;5021563;28;20041;-84
2024/01/19 12:52:55;;;;;;;8.43;1.95;;;3.40;84.10;;;;;;5022298;28;20484;-84
2024/01/19 12:55:27;;;;;;;8.97;2.43;;;3.50;84.20;;;;;;5011490;28;20397;-84